Friday, January 18, 2019, 11:16 PM EST
Back to Local

KBLM, Belmar-farmingdale

Location: Farmingdale, NJ, United States Lat: 40.183
Local Time: 11:16 PM EST ( 4:16 GMT) Lon: -74.133
Time Zone: US/Eastern Elev: 157 ft

Show me the last for .
Show Decoded

2019-01-18 21:56 METAR KBLM 190256Z AUTO 26005KT 5SM BR OVC060 M01/M01 A3018 RMK AO2 SLP225
                 T10061011 53020 FZRANO =
2019-01-18 20:56 METAR KBLM 190156Z AUTO 26004KT 5SM BR CLR M01/M02 A3015 RMK AO2 SLP214
                 T10111022 FZRANO =
2019-01-18 19:56 METAR KBLM 190056Z AUTO 27005KT 7SM SCT010 M01/M02 A3013 RMK AO2 SLP208
                 T10061017 FZRANO =
2019-01-18 18:56 METAR KBLM 182356Z AUTO 27005KT 10SM OVC010 01/M01 A3012 RMK AO2 SLP205
                 T00111006 10044 20011 53012 FZRANO =
2019-01-18 17:56 METAR KBLM 182256Z AUTO 26006KT 8SM OVC008 02/01 A3010 RMK AO2 SLP199 T00170006
                 FZRANO =
2019-01-18 17:49 METAR KBLM 182249Z AUTO 26007KT 8SM OVC008 02/01 A3010 RMK AO2 FZRANO =
2019-01-18 16:56 METAR KBLM 182156Z AUTO 27005KT 10SM OVC012 02/01 A3009 RMK AO2 SLP195 T00220011
                 FZRANO =
2019-01-18 15:56 METAR KBLM 182056Z AUTO 25006KT 10SM OVC010 03/01 A3008 RMK AO2 CIG 007V013
                 SLP192 T00280011 53002 =
2019-01-18 15:45 METAR KBLM 182045Z AUTO 26005KT 9SM OVC010 03/02 A3008 RMK AO2 CIG 008V013 =
2019-01-18 14:56 METAR KBLM 181956Z AUTO 25004KT 8SM OVC008 03/02 A3006 RMK AO2 SLP186 T00280017
                 =
2019-01-18 13:56 METAR KBLM 181856Z AUTO 28003KT 10SM OVC008 03/02 A3006 RMK AO2 RAE1757 CIG
                 006V010 SLP186 T00330017 =
2019-01-18 13:03 METAR KBLM 181803Z AUTO 31003KT 10SM BKN008 OVC021 03/02 A3007 RMK AO2 RAE1757
                 CIG 007V011 =
2019-01-18 12:56 METAR KBLM 181756Z AUTO 00000KT 10SM -RA SCT008 BKN021 OVC028 03/02 A3008 RMK
                 AO2 RAB27 SLP190 P0000 60000 T00330022 10039 21006 56014 =
2019-01-18 12:51 METAR KBLM 181751Z AUTO 00000KT 10SM -RA SCT008 BKN021 OVC028 03/02 A3008 RMK
                 AO2 RAB27 P0000 =
2019-01-18 11:56 METAR KBLM 181656Z AUTO 00000KT 10SM BKN006 OVC026 03/02 A3009 RMK AO2 SLP196
                 T00330017 =
2019-01-18 11:41 METAR KBLM 181641Z AUTO 00000KT 10SM OVC006 03/02 A3010 RMK AO2 =
2019-01-18 11:03 METAR KBLM 181603Z AUTO 03003KT 6SM BR BKN004 OVC041 02/02 A3011 RMK AO2 FZRANO
                 =
2019-01-18 10:56 METAR KBLM 181556Z AUTO 03004KT 6SM BR BKN002 OVC041 02/02 A3012 RMK AO2 SLP204
                 T00220017 FZRANO =
2019-01-18 10:09 METAR KBLM 181509Z AUTO 01003KT 3SM BR OVC002 02/02 A3012 RMK AO2 FZRANO =
2019-01-18 09:56 METAR KBLM 181456Z AUTO 01003KT 2 1/2SM BR OVC002 02/01 A3011 RMK AO2
                 RAE39UPB39E49 SLP203 P0000 60000 T00170011 53002 FZRANO =
2019-01-18 09:44 METAR KBLM 181444Z AUTO 03004KT 2SM UP BR OVC002 01/01 A3011 RMK AO2 RAE39UPB39
                 P0000 FZRANO =
2019-01-18 08:56 METAR KBLM 181356Z AUTO 01003KT 1 1/4SM -RA BR BKN002 OVC008 01/00 A3011 RMK AO2
                 UPE56RAB56 SLP200 P0000 T00060000 FZRANO =
2019-01-18 07:56 METAR KBLM 181256Z AUTO 00000KT 1 1/2SM UP BR OVC002 00/M01 A3011 RMK AO2
                 UPB08SNE08 SLP201 P0000 T00001006 FZRANO =
2019-01-18 07:14 METAR KBLM 181214Z AUTO 03004KT 1 3/4SM UP BR OVC002 M01/M01 A3010 RMK AO2
                 UPB08SNE08 P0000 FZRANO =
2019-01-18 06:56 METAR KBLM 181156Z AUTO 03003KT 2 1/2SM -SN BR OVC004 M01/M01 A3011 RMK AO2
                 SLP200 P0000 60002 70002 T10061011 10000 21011 56009 FZRANO =
2019-01-18 06:40 METAR KBLM 181140Z AUTO 04003KT 2 1/2SM -SN BR OVC004 M01/M01 A3010 RMK AO2
                 P0000 FZRANO =
2019-01-18 06:25 METAR KBLM 181125Z AUTO 04004KT 3SM -SN BR OVC004 M01/M01 A3010 RMK AO2 P0000
                 FZRANO =
2019-01-18 05:56 METAR KBLM 181056Z AUTO 01003KT 2 1/2SM -SN BR OVC004 M01/M01 A3011 RMK AO2
                 SLP201 P0000 T10061011 FZRANO =
2019-01-18 05:39 METAR KBLM 181039Z AUTO 00000KT 2 1/2SM -SN BR OVC004 M01/M02 A3011 RMK AO2
                 P0000 FZRANO =
2019-01-18 05:14 METAR KBLM 181014Z AUTO 01003KT 3SM -SN BR OVC004 M01/M02 A3011 RMK AO2 CIG
                 003V006 P0000 FZRANO =
2019-01-18 04:56 METAR KBLM 180956Z AUTO 00000KT 2SM -SN BR BKN008 OVC015 M01/M02 A3012 RMK AO2
                 CIG 005V009 SLP205 P0001 T10061017 FZRANO =
2019-01-18 04:43 METAR KBLM 180943Z AUTO 00000KT 2 1/2SM -SN BR BKN008 OVC015 M01/M02 A3012 RMK
                 AO2 VIS 2V4 CIG 005V011 P0000 FZRANO =
2019-01-18 04:35 METAR KBLM 180935Z AUTO 30003KT 2 1/2SM -SN BR FEW005 BKN010 OVC015 M01/M02
                 A3013 RMK AO2 VIS 1 3/4V4 P0000 FZRANO =
2019-01-18 04:26 METAR KBLM 180926Z AUTO 00000KT 3SM -SN BR FEW005 SCT010 OVC015 M01/M02 A3013
                 RMK AO2 P0000 FZRANO =
2019-01-18 04:21 METAR KBLM 180921Z AUTO 00000KT 2 1/2SM -SN BR BKN005 BKN010 OVC015 M01/M02
                 A3013 RMK AO2 P0000 FZRANO =
2019-01-18 03:56 METAR KBLM 180856Z AUTO 34003KT 2 1/2SM -SN BR SCT005 BKN010 OVC018 M01/M02
                 A3013 RMK AO2 SLP210 P0001 60001 T10061017 58020 FZRANO =
2019-01-18 03:54 METAR KBLM 180854Z AUTO 35003KT 2 1/2SM -SN BR FEW005 BKN012 OVC018 M01/M02
                 A3014 RMK AO2 VIS 1 3/4V3 P0000 FZRANO =
2019-01-18 03:42 METAR KBLM 180842Z AUTO 35003KT 2SM -SN BR SCT010 OVC016 M01/M02 A3014 RMK AO2
                 P0000 FZRANO =
2019-01-18 03:32 METAR KBLM 180832Z AUTO 35003KT 3SM -SN BR BKN014 OVC023 M01/M02 A3015 RMK AO2
                 P0000 FZRANO =
2019-01-18 03:15 METAR KBLM 180815Z AUTO 36003KT 2SM -SN BR OVC014 M01/M02 A3015 RMK AO2 P0000
                 FZRANO =
2019-01-18 02:56 METAR KBLM 180756Z AUTO 34003KT 5SM -SN BR BKN014 OVC039 M01/M02 A3016 RMK AO2
                 SLP219 P0000 T10061022 FZRANO =
2019-01-18 02:49 METAR KBLM 180749Z AUTO 00000KT 6SM -SN BR BKN014 BKN035 OVC042 M01/M02 A3016
                 RMK AO2 P0000 FZRANO =
2019-01-18 02:05 METAR KBLM 180705Z AUTO 02003KT 6SM -SN BR SCT026 SCT033 OVC044 M01/M02 A3017
                 RMK AO2 P0000 FZRANO =
2019-01-18 01:56 METAR KBLM 180656Z AUTO 36004KT 7SM -SN BKN026 OVC046 M01/M02 A3017 RMK AO2
                 RAE00UPB00E55SNB55 SLP223 P0000 T10061017 FZRANO =
2019-01-18 01:16 METAR KBLM 180616Z AUTO 00000KT 10SM UP OVC029 00/M02 A3018 RMK AO2 RAE00UPB00
                 P0000 FZRANO =
2019-01-18 01:08 METAR KBLM 180608Z AUTO 00000KT 10SM UP OVC031 00/M02 A3019 RMK AO2 RAE00UPB00
                 P0000 FZRANO =
2019-01-18 00:56 METAR KBLM 180556Z AUTO 00000KT 8SM -RA BKN029 OVC036 00/M02 A3019 RMK AO2
                 RAE24B54UPB24E54 SLP230 P0000 60000 T00001022 10011 21022 58019 FZRANO =
2019-01-17 23:56 METAR KBLM 180456Z AUTO 12004KT 10SM -RA FEW031 OVC060 01/M04 A3022 RMK AO2
                 RAB43 SLP238 P0000 T00111044 400111044 FZRANO =

Support USWX by starting your Amazon purchase here.